Nouvelle, Canada
Current Conditions -  °F | °C
As of 3:00 PM on Monday 26 Jan 2015 (Local Time) from CZBF Reporting Station
Few Clouds Few Clouds  
Wind Chill:   Ceiling: Unl
Heat Index:   Visibility: 15mi
Dew Point: -13°   Wind: 5mph
Humidity: 37%   Direction: 280°W
Pressure: 30.21"   Gusts: NA
Location:  48.13°N, 66.3°W
Report Text: CZBF 262000Z 28004KT 260V320 15SM FEW260 M13/M25 A3021 RMK CI1 CI TR SLP237
Loading
Personal Weather Stations






























Interactive Weather Map New forecast layout! Learn more

10-Day Weather Forecast

Advertisements
Track Severe Weather on mobile